Time;durP1;ratioP1;P1;durP2;ratioP2;P2;SDS_P1;SDS_P2;PMS_P1;PMS_P2;Temp;Humidity;BMP_temperature;BMP_pressure;BME280_temperature;BME280_humidity;BME280_pressure;Samples;Min_cycle;Max_cycle;Signal;HPM_P1;HPM_P2
2022/05/20 00:01:03;;;;;;;;;;;14.80;99.90;;;;;;5066720;28;19912;-70
2022/05/20 00:03:31;;;;;;;;;;;14.90;99.90;;;;;;5086002;28;20006;-70
2022/05/20 00:05:58;;;;;;;;;;;14.80;99.90;;;;;;5083366;28;19939;-71
2022/05/20 00:08:23;;;;;;;;;;;14.80;99.90;;;;;;5079160;28;19917;-70
2022/05/20 00:10:53;;;;;;;;;;;14.60;99.90;;;;;;5087731;28;20025;-71
2022/05/20 00:13:23;;;;;;;;;;;14.50;99.90;;;;;;5082041;28;19922;-69
2022/05/20 00:15:48;;;;;;;;;;;14.50;99.90;;;;;;5067406;28;20361;-69
2022/05/20 00:18:14;;;;;;;;;;;14.60;99.90;;;;;;5080511;28;19952;-69
2022/05/20 00:20:40;;;;;;;;;;;14.80;99.90;;;;;;5063635;28;19912;-69
2022/05/20 00:23:08;;;;;;;;;;;14.90;99.90;;;;;;5083979;28;20588;-69
2022/05/20 00:25:46;;;;;;;;;;;15.00;99.90;;;;;;5083445;28;19927;-69
2022/05/20 00:28:13;;;;;;;;;;;15.00;99.90;;;;;;5080836;28;19922;-69
2022/05/20 00:30:39;;;;;;;;;;;15.00;99.90;;;;;;5088173;28;19937;-68
2022/05/20 00:33:04;;;;;;;;;;;15.00;99.90;;;;;;5086316;28;19912;-68
2022/05/20 00:35:30;;;;;;;;;;;14.90;99.90;;;;;;5087200;28;20047;-70
2022/05/20 00:37:56;;;;;;;;;;;14.90;99.90;;;;;;5065880;28;19912;-70
2022/05/20 00:40:23;;;;;;;;;;;14.70;99.90;;;;;;5076869;28;20179;-71
2022/05/20 00:42:49;;;;;;;;;;;14.40;99.90;;;;;;5094372;28;20527;-69
2022/05/20 00:45:15;;;;;;;;;;;14.30;99.90;;;;;;5091315;28;19912;-69
2022/05/20 00:47:44;;;;;;;;;;;14.40;99.90;;;;;;5086422;28;19988;-68
2022/05/20 00:50:11;;;;;;;;;;;14.50;99.90;;;;;;5083566;28;19994;-69
2022/05/20 00:52:37;;;;;;;;;;;14.60;99.90;;;;;;5087053;28;19920;-69
2022/05/20 00:55:07;;;;;;;;;;;14.60;99.90;;;;;;5085196;28;19924;-70
2022/05/20 00:57:35;;;;;;;;;;;14.70;99.90;;;;;;5085814;28;20006;-72
2022/05/20 01:00:03;;;;;;;;;;;14.60;99.90;;;;;;5070104;28;20003;-70
2022/05/20 01:02:30;;;;;;;;;;;14.70;99.90;;;;;;5086281;28;19973;-71
2022/05/20 01:04:59;;;;;;;;;;;14.70;99.90;;;;;;5083771;28;20264;-69
2022/05/20 01:07:26;;;;;;;;;;;14.50;99.90;;;;;;5085647;28;20110;-70
2022/05/20 01:09:52;;;;;;;;;;;14.40;99.90;;;;;;5088835;28;19920;-71
2022/05/20 01:12:17;;;;;;;;;;;14.40;99.90;;;;;;5088721;28;19927;-71
2022/05/20 01:14:43;;;;;;;;;;;14.50;99.90;;;;;;5068888;28;19912;-71
2022/05/20 01:17:09;;;;;;;;;;;14.50;99.90;;;;;;5087507;28;19916;-71
2022/05/20 01:19:44;;;;;;;;;;;14.30;99.90;;;;;;5080648;28;19958;-69
2022/05/20 01:22:10;;;;;;;;;;;14.20;99.90;;;;;;5086226;28;19912;-70
2022/05/20 01:24:36;;;;;;;;;;;14.10;99.90;;;;;;5087871;28;19920;-70
2022/05/20 01:27:02;;;;;;;;;;;14.20;99.90;;;;;;5075217;28;20117;-71
2022/05/20 01:29:27;;;;;;;;;;;14.30;99.90;;;;;;5071610;28;20358;-70
2022/05/20 01:31:53;;;;;;;;;;;14.30;99.90;;;;;;5083488;28;19932;-69
2022/05/20 01:34:20;;;;;;;;;;;14.30;99.90;;;;;;5088925;28;19916;-71
2022/05/20 01:36:45;;;;;;;;;;;14.20;99.90;;;;;;5066330;28;19928;-70
2022/05/20 01:39:11;;;;;;;;;;;14.10;99.90;;;;;;5081604;28;19919;-70
2022/05/20 01:41:40;;;;;;;;;;;14.00;99.90;;;;;;5085187;28;19928;-68
2022/05/20 01:44:16;;;;;;;;;;;14.10;99.90;;;;;;5090316;28;20024;-71
2022/05/20 01:46:51;;;;;;;;;;;14.00;99.90;;;;;;5083919;28;20301;-69
2022/05/20 01:49:32;;;;;;;;;;;14.10;99.90;;;;;;5084316;28;20256;-70
2022/05/20 01:52:16;;;;;;;;;;;14.10;99.90;;;;;;5078083;28;20499;-71
2022/05/20 01:54:42;;;;;;;;;;;14.10;99.90;;;;;;5079535;28;19924;-70
2022/05/20 01:57:16;;;;;;;;;;;14.20;99.90;;;;;;5081776;28;20461;-70
2022/05/20 01:59:44;;;;;;;;;;;14.10;99.90;;;;;;5067669;28;19920;-71
2022/05/20 02:02:12;;;;;;;;;;;14.00;99.90;;;;;;5065388;28;19912;-71
2022/05/20 02:04:49;;;;;;;;;;;14.00;99.90;;;;;;5070943;28;20393;-71
2022/05/20 02:07:20;;;;;;;;;;;14.00;99.90;;;;;;5083345;28;19927;-72
2022/05/20 02:09:49;;;;;;;;;;;14.10;99.90;;;;;;5086778;28;19919;-71
2022/05/20 02:12:17;;;;;;;;;;;14.10;99.90;;;;;;5085330;28;20268;-71
2022/05/20 02:14:46;;;;;;;;;;;14.10;99.90;;;;;;5085904;28;19958;-71
2022/05/20 02:17:34;;;;;;;;;;;14.10;99.90;;;;;;5083006;28;19958;-70
2022/05/20 02:20:04;;;;;;;;;;;14.20;99.90;;;;;;5085098;28;20289;-70
2022/05/20 02:22:33;;;;;;;;;;;14.20;99.90;;;;;;5069694;28;20250;-70
2022/05/20 02:25:01;;;;;;;;;;;14.10;99.90;;;;;;5070240;28;19921;-70
2022/05/20 02:27:28;;;;;;;;;;;13.90;99.90;;;;;;5086914;28;20084;-70
2022/05/20 02:30:06;;;;;;;;;;;13.80;99.90;;;;;;5087687;28;20386;-70
2022/05/20 02:32:41;;;;;;;;;;;13.70;99.90;;;;;;5086913;28;19927;-70
2022/05/20 02:35:07;;;;;;;;;;;13.50;99.90;;;;;;5086964;28;19916;-70
2022/05/20 02:37:35;;;;;;;;;;;13.40;99.90;;;;;;5086585;28;19916;-70
2022/05/20 02:40:01;;;;;;;;;;;13.30;99.90;;;;;;5086296;28;20003;-70
2022/05/20 02:42:28;;;;;;;;;;;13.30;99.90;;;;;;5071968;28;20380;-70
2022/05/20 02:44:54;;;;;;;;;;;13.30;99.90;;;;;;5085320;28;20313;-71
2022/05/20 02:47:20;;;;;;;;;;;13.40;99.90;;;;;;5081454;28;20015;-71
2022/05/20 02:49:46;;;;;;;;;;;13.40;99.90;;;;;;5081825;28;20006;-71
2022/05/20 02:52:11;;;;;;;;;;;13.30;99.90;;;;;;5085146;28;19924;-70
2022/05/20 02:54:37;;;;;;;;;;;13.30;99.90;;;;;;5088199;28;19917;-70
2022/05/20 02:57:03;;;;;;;;;;;13.30;99.90;;;;;;5087779;28;19912;-69
2022/05/20 03:04:57;;;;;;;;;;;13.10;99.90;;;;;;5086710;28;19919;-71
2022/05/20 03:07:23;;;;;;;;;;;13.10;99.90;;;;;;5068165;28;19912;-71
2022/05/20 03:09:51;;;;;;;;;;;13.00;99.90;;;;;;5086612;28;20329;-71
2022/05/20 03:12:17;;;;;;;;;;;13.00;99.90;;;;;;5085728;28;19919;-72
2022/05/20 03:14:44;;;;;;;;;;;13.00;99.90;;;;;;5087819;28;19930;-70
2022/05/20 03:17:09;;;;;;;;;;;13.00;99.90;;;;;;5066108;28;20312;-70
2022/05/20 03:19:35;;;;;;;;;;;13.00;99.90;;;;;;5083639;28;19916;-71
2022/05/20 03:22:01;;;;;;;;;;;13.00;99.90;;;;;;5068892;28;20342;-70
2022/05/20 03:24:27;;;;;;;;;;;13.10;99.90;;;;;;5089102;28;19923;-71
2022/05/20 03:26:53;;;;;;;;;;;13.10;99.90;;;;;;5086688;28;19919;-70
2022/05/20 03:29:19;;;;;;;;;;;13.10;99.90;;;;;;5086506;28;20382;-71
2022/05/20 03:31:44;;;;;;;;;;;13.10;99.90;;;;;;5085481;28;20267;-70
2022/05/20 03:34:10;;;;;;;;;;;13.20;99.90;;;;;;5084292;28;20305;-71
2022/05/20 03:36:37;;;;;;;;;;;13.20;99.90;;;;;;5088494;28;20054;-70
2022/05/20 03:39:03;;;;;;;;;;;13.30;99.90;;;;;;5082356;28;19912;-70
2022/05/20 03:41:30;;;;;;;;;;;13.10;99.90;;;;;;5091180;28;19919;-70
2022/05/20 03:43:56;;;;;;;;;;;13.00;99.90;;;;;;5087132;28;19912;-70
2022/05/20 03:46:21;;;;;;;;;;;13.00;99.90;;;;;;5085945;28;19912;-71
2022/05/20 03:48:47;;;;;;;;;;;13.00;99.90;;;;;;5061930;28;19916;-70
2022/05/20 03:51:13;;;;;;;;;;;13.00;99.90;;;;;;5067087;28;19920;-71
2022/05/20 03:53:39;;;;;;;;;;;13.00;99.90;;;;;;5065620;28;19916;-70
2022/05/20 03:56:05;;;;;;;;;;;13.00;99.90;;;;;;5064982;28;19991;-71
2022/05/20 03:58:30;;;;;;;;;;;12.90;99.90;;;;;;5081186;28;20076;-71
2022/05/20 04:04:00;;;;;;;;;;;12.90;99.90;;;;;;5000857;28;20406;-70
2022/05/20 04:06:26;;;;;;;;;;;12.90;99.90;;;;;;5001911;28;20030;-70
2022/05/20 04:08:51;;;;;;;;;;;12.80;99.90;;;;;;5035401;28;19916;-72
2022/05/20 04:11:17;;;;;;;;;;;12.80;99.90;;;;;;5073233;28;19959;-71
2022/05/20 04:13:43;;;;;;;;;;;12.80;99.90;;;;;;5084719;28;19919;-72
2022/05/20 04:16:10;;;;;;;;;;;12.90;99.90;;;;;;5086645;28;19955;-72
2022/05/20 04:18:37;;;;;;;;;;;12.90;99.90;;;;;;5087602;28;19912;-73
2022/05/20 04:21:04;;;;;;;;;;;13.00;99.90;;;;;;5082340;28;19919;-73
2022/05/20 04:23:29;;;;;;;;;;;13.10;99.90;;;;;;5080611;28;19912;-73
2022/05/20 04:25:55;;;;;;;;;;;13.00;99.90;;;;;;5085174;28;20057;-73
2022/05/20 04:28:20;;;;;;;;;;;13.00;99.90;;;;;;5089181;28;19955;-73
2022/05/20 04:30:46;;;;;;;;;;;12.90;99.90;;;;;;5090517;28;19936;-73
2022/05/20 04:33:13;;;;;;;;;;;12.90;99.90;;;;;;5086535;28;19919;-73
2022/05/20 04:35:38;;;;;;;;;;;12.90;99.90;;;;;;5090215;28;19912;-74
2022/05/20 04:38:04;;;;;;;;;;;12.90;99.90;;;;;;5076439;28;19927;-72
2022/05/20 04:40:29;;;;;;;;;;;13.00;99.90;;;;;;5080571;28;20368;-74
2022/05/20 04:48:24;;;;;;;;;;;12.90;99.90;;;;;;5086181;28;20596;-73
2022/05/20 04:50:49;;;;;;;;;;;13.10;99.90;;;;;;5093061;28;19921;-73
2022/05/20 04:54:49;;;;;;;;;;;13.10;99.90;;;;;;5097001;28;19962;-74
2022/05/20 04:56:00;;;;;;;;;;;13.00;99.90;;;;;;5092851;28;19995;-73
2022/05/20 04:58:26;;;;;;;;;;;13.00;99.90;;;;;;5094556;28;19952;-74
2022/05/20 05:00:54;;;;;;;;;;;13.10;99.90;;;;;;5093395;28;19959;-73
2022/05/20 05:03:19;;;;;;;;;;;13.30;99.90;;;;;;5097493;28;19951;-73
2022/05/20 05:05:45;;;;;;;;;;;13.30;99.90;;;;;;5093250;28;19912;-73
2022/05/20 05:08:10;;;;;;;;;;;13.30;99.90;;;;;;5096679;28;19967;-73
2022/05/20 05:10:36;;;;;;;;;;;13.10;99.90;;;;;;5069920;28;19983;-73
2022/05/20 05:13:03;;;;;;;;;;;13.00;99.90;;;;;;5070363;28;19923;-73
2022/05/20 05:15:29;;;;;;;;;;;12.90;99.90;;;;;;5074796;28;19912;-72
2022/05/20 05:18:09;;;;;;;;;;;12.80;99.90;;;;;;5070150;28;19912;-73
2022/05/20 05:20:35;;;;;;;;;;;12.80;99.90;;;;;;5066432;28;20049;-72
2022/05/20 05:23:02;;;;;;;;;;;12.80;99.90;;;;;;5052902;28;19985;-74
2022/05/20 05:25:28;;;;;;;;;;;12.80;99.90;;;;;;5069672;28;19916;-73
2022/05/20 05:27:54;;;;;;;;;;;12.80;99.90;;;;;;5067239;28;19912;-74
2022/05/20 05:30:20;;;;;;;;;;;13.00;99.90;;;;;;5067335;28;19920;-73
2022/05/20 05:32:45;;;;;;;;;;;13.10;99.90;;;;;;5066409;28;20375;-73
2022/05/20 05:35:13;;;;;;;;;;;13.10;99.90;;;;;;5070390;28;19916;-74
2022/05/20 05:37:39;;;;;;;;;;;13.00;99.90;;;;;;5067954;28;19923;-72
2022/05/20 05:40:05;;;;;;;;;;;13.20;99.90;;;;;;5061585;28;19920;-74
2022/05/20 05:42:30;;;;;;;;;;;13.20;99.90;;;;;;5066324;28;19917;-72
2022/05/20 05:44:56;;;;;;;;;;;13.20;99.90;;;;;;5067338;28;19912;-73
2022/05/20 05:47:22;;;;;;;;;;;13.30;99.90;;;;;;5066883;28;19969;-74
2022/05/20 05:49:47;;;;;;;;;;;13.40;99.90;;;;;;5066616;28;19952;-72
2022/05/20 05:52:13;;;;;;;;;;;13.40;99.90;;;;;;5069611;28;19921;-73
2022/05/20 05:54:39;;;;;;;;;;;13.40;99.90;;;;;;5059122;28;19917;-74
2022/05/20 05:57:04;;;;;;;;;;;13.30;99.90;;;;;;5065128;28;20294;-73
2022/05/20 05:59:31;;;;;;;;;;;13.40;99.90;;;;;;5065578;28;19912;-73
2022/05/20 06:02:00;;;;;;;;;;;13.50;99.90;;;;;;5062617;28;19920;-73
2022/05/20 06:04:26;;;;;;;;;;;13.50;99.90;;;;;;5065607;28;19913;-72
2022/05/20 06:06:52;;;;;;;;;;;13.50;99.90;;;;;;5066305;28;20012;-72
2022/05/20 06:09:18;;;;;;;;;;;13.40;99.90;;;;;;5066424;28;19912;-72
2022/05/20 06:11:43;;;;;;;;;;;13.40;99.90;;;;;;5082188;28;20422;-74
2022/05/20 06:14:09;;;;;;;;;;;13.40;99.90;;;;;;5088462;28;20326;-72
2022/05/20 06:16:35;;;;;;;;;;;13.50;99.90;;;;;;5068830;28;20374;-73
2022/05/20 06:19:00;;;;;;;;;;;13.60;99.90;;;;;;5070139;28;19954;-72
2022/05/20 06:21:28;;;;;;;;;;;13.60;99.90;;;;;;5087675;28;19943;-74
2022/05/20 06:23:54;;;;;;;;;;;13.80;99.90;;;;;;5086121;28;19912;-73
2022/05/20 06:26:20;;;;;;;;;;;13.80;99.90;;;;;;5081969;28;19912;-73
2022/05/20 06:28:45;;;;;;;;;;;13.90;99.90;;;;;;5086757;28;20322;-74
2022/05/20 06:31:11;;;;;;;;;;;14.00;99.90;;;;;;5085842;28;20020;-72
2022/05/20 06:33:37;;;;;;;;;;;14.00;99.90;;;;;;5080240;28;20003;-72
2022/05/20 06:41:31;;;;;;;;;;;14.00;99.90;;;;;;5088208;28;19982;-75
2022/05/20 06:43:57;;;;;;;;;;;14.00;99.90;;;;;;5085998;28;19912;-72
2022/05/20 06:46:23;;;;;;;;;;;14.20;99.90;;;;;;5064802;28;20408;-74
2022/05/20 06:48:50;;;;;;;;;;;14.20;99.90;;;;;;5084879;28;20320;-72
2022/05/20 06:51:17;;;;;;;;;;;14.10;99.90;;;;;;5082912;28;19928;-73
2022/05/20 06:53:43;;;;;;;;;;;14.10;99.90;;;;;;5085277;28;19916;-73
2022/05/20 06:56:09;;;;;;;;;;;14.10;99.90;;;;;;5083159;28;20408;-74
2022/05/20 06:58:35;;;;;;;;;;;14.00;99.90;;;;;;5085105;28;19942;-72
2022/05/20 07:01:01;;;;;;;;;;;13.90;99.90;;;;;;5076640;28;19916;-71
2022/05/20 07:03:27;;;;;;;;;;;13.90;99.90;;;;;;5083197;28;19936;-70
2022/05/20 07:05:52;;;;;;;;;;;14.00;99.90;;;;;;5082741;28;19912;-71
2022/05/20 07:08:18;;;;;;;;;;;14.00;99.90;;;;;;5088470;28;19919;-73
2022/05/20 07:10:44;;;;;;;;;;;14.00;99.90;;;;;;5080706;28;20310;-70
2022/05/20 07:13:09;;;;;;;;;;;14.00;99.90;;;;;;5068275;28;20376;-71
2022/05/20 07:15:35;;;;;;;;;;;14.10;99.90;;;;;;5074106;28;19919;-73
2022/05/20 07:18:00;;;;;;;;;;;14.00;99.90;;;;;;5071137;28;19977;-73
2022/05/20 07:20:26;;;;;;;;;;;13.90;99.90;;;;;;5071981;28;19916;-70
2022/05/20 07:22:51;;;;;;;;;;;14.00;99.90;;;;;;5090085;28;19916;-71
2022/05/20 07:25:19;;;;;;;;;;;14.20;99.90;;;;;;5087067;28;19919;-72
2022/05/20 07:27:45;;;;;;;;;;;14.30;99.90;;;;;;5083736;28;20065;-71
2022/05/20 07:30:11;;;;;;;;;;;14.40;99.90;;;;;;5067320;28;19924;-75
2022/05/20 07:32:40;;;;;;;;;;;14.40;99.90;;;;;;5077955;28;20278;-70
2022/05/20 07:35:05;;;;;;;;;;;14.50;99.90;;;;;;5082665;28;20037;-71
2022/05/20 07:37:32;;;;;;;;;;;14.50;99.90;;;;;;5076227;28;19916;-70
2022/05/20 07:39:58;;;;;;;;;;;14.40;99.90;;;;;;5075514;28;19970;-70
2022/05/20 07:42:23;;;;;;;;;;;14.50;99.90;;;;;;5084429;28;20385;-72
2022/05/20 07:44:49;;;;;;;;;;;14.70;99.90;;;;;;5076010;28;19983;-73
2022/05/20 07:47:15;;;;;;;;;;;14.80;99.90;;;;;;5075900;28;19912;-71
2022/05/20 07:49:40;;;;;;;;;;;14.90;99.90;;;;;;5084899;28;20377;-70
2022/05/20 07:52:07;;;;;;;;;;;14.90;99.90;;;;;;5090753;28;19999;-70
2022/05/20 07:54:36;;;;;;;;;;;14.90;99.90;;;;;;5089392;28;20425;-69
2022/05/20 07:57:04;;;;;;;;;;;14.80;99.90;;;;;;5091488;28;20305;-71
2022/05/20 07:59:49;;;;;;;;;;;15.00;99.90;;;;;;5086651;28;19919;-71
2022/05/20 08:02:16;;;;;;;;;;;14.90;99.90;;;;;;5091284;28;19973;-71
2022/05/20 08:04:53;;;;;;;;;;;14.90;99.90;;;;;;5077183;28;19912;-71
2022/05/20 08:07:20;;;;;;;;;;;14.90;99.90;;;;;;5089545;28;20369;-71
2022/05/20 08:09:46;;;;;;;;;;;14.80;99.90;;;;;;5071393;28;20563;-70
2022/05/20 08:12:12;;;;;;;;;;;14.80;99.90;;;;;;5090407;28;20027;-71
2022/05/20 08:14:37;;;;;;;;;;;14.80;99.90;;;;;;5091100;28;19912;-71
2022/05/20 08:17:03;;;;;;;;;;;14.90;99.90;;;;;;5071040;28;19965;-73
2022/05/20 08:19:32;;;;;;;;;;;14.80;99.90;;;;;;5090548;28;19916;-71
2022/05/20 08:21:57;;;;;;;;;;;14.70;99.90;;;;;;5089895;28;20373;-72
2022/05/20 08:24:23;;;;;;;;;;;14.80;99.90;;;;;;5090180;28;19922;-72
2022/05/20 08:26:50;;;;;;;;;;;14.90;99.90;;;;;;5069980;28;19947;-72
2022/05/20 08:29:15;;;;;;;;;;;15.00;99.90;;;;;;5073373;28;19935;-72
2022/05/20 08:31:41;;;;;;;;;;;15.00;99.90;;;;;;5091789;28;20385;-72
2022/05/20 08:34:07;;;;;;;;;;;15.10;99.90;;;;;;5066931;28;19918;-73
2022/05/20 08:36:33;;;;;;;;;;;15.00;99.90;;;;;;5087861;28;19970;-73
2022/05/20 08:38:58;;;;;;;;;;;15.00;99.90;;;;;;5062563;28;20003;-72
2022/05/20 08:41:26;;;;;;;;;;;15.20;99.90;;;;;;5088320;28;19920;-69
2022/05/20 08:43:51;;;;;;;;;;;15.30;99.90;;;;;;5084516;28;19920;-70
2022/05/20 08:46:18;;;;;;;;;;;15.40;99.90;;;;;;5084248;28;19912;-70
2022/05/20 08:48:44;;;;;;;;;;;15.50;99.90;;;;;;5087937;28;19956;-70
2022/05/20 08:51:10;;;;;;;;;;;15.60;99.90;;;;;;5071403;28;19920;-70
2022/05/20 08:53:40;;;;;;;;;;;15.50;99.90;;;;;;5083189;28;19916;-70
2022/05/20 08:56:08;;;;;;;;;;;15.40;99.90;;;;;;5086642;28;19989;-70
2022/05/20 08:58:35;;;;;;;;;;;15.40;99.90;;;;;;5089077;28;19924;-70
2022/05/20 09:01:00;;;;;;;;;;;15.20;99.90;;;;;;5082772;28;20442;-71
2022/05/20 09:03:26;;;;;;;;;;;15.30;99.90;;;;;;5086712;28;19916;-70
2022/05/20 09:06:04;;;;;;;;;;;15.20;99.90;;;;;;5083266;28;20007;-70
2022/05/20 09:08:33;;;;;;;;;;;15.20;99.90;;;;;;5069897;28;19919;-71
2022/05/20 09:11:00;;;;;;;;;;;15.20;99.90;;;;;;5087391;28;20239;-69
2022/05/20 09:16:19;;;;;;;;;;;15.20;99.90;;;;;;5087432;28;19969;-70
2022/05/20 09:18:45;;;;;;;;;;;15.30;99.90;;;;;;5085245;28;19912;-70
2022/05/20 09:21:33;;;;;;;;;;;15.50;99.90;;;;;;5068178;28;19947;-70
2022/05/20 09:24:01;;;;;;;;;;;15.70;99.90;;;;;;5090163;28;19938;-69
2022/05/20 09:26:32;;;;;;;;;;;15.70;99.90;;;;;;5083505;28;20365;-70
2022/05/20 09:29:05;;;;;;;;;;;15.70;99.90;;;;;;5086043;28;19966;-71
2022/05/20 09:31:34;;;;;;;;;;;15.70;99.90;;;;;;5077843;28;20291;-69
2022/05/20 09:34:06;;;;;;;;;;;15.60;99.90;;;;;;5083508;28;19971;-71
2022/05/20 09:36:43;;;;;;;;;;;15.70;99.90;;;;;;5071971;28;19912;-70
2022/05/20 09:39:11;;;;;;;;;;;15.50;99.90;;;;;;5087909;28;19930;-70
2022/05/20 09:41:47;;;;;;;;;;;15.50;99.90;;;;;;5070526;28;19913;-71
2022/05/20 09:44:13;;;;;;;;;;;15.50;99.90;;;;;;5087185;28;19999;-71
2022/05/20 09:46:41;;;;;;;;;;;15.50;99.90;;;;;;5088102;28;20010;-70
2022/05/20 09:49:15;;;;;;;;;;;15.70;99.90;;;;;;5073361;28;19912;-69
2022/05/20 09:51:45;;;;;;;;;;;15.50;99.90;;;;;;5087784;28;19924;-70
2022/05/20 09:54:20;;;;;;;;;;;15.60;99.90;;;;;;5071571;28;19920;-69
2022/05/20 09:56:56;;;;;;;;;;;15.50;99.90;;;;;;5088789;28;19912;-70
2022/05/20 09:59:30;;;;;;;;;;;15.50;99.90;;;;;;5067559;28;20705;-70
2022/05/20 10:02:09;;;;;;;;;;;15.70;99.90;;;;;;5070004;28;20031;-70
2022/05/20 10:04:44;;;;;;;;;;;15.80;99.90;;;;;;5082626;28;19912;-69
2022/05/20 10:07:13;;;;;;;;;;;15.90;99.90;;;;;;5087084;28;19912;-70
2022/05/20 10:09:52;;;;;;;;;;;16.10;99.90;;;;;;5086918;28;19957;-70
2022/05/20 10:12:32;;;;;;;;;;;16.20;99.90;;;;;;5084062;28;19924;-70
2022/05/20 10:14:58;;;;;;;;;;;16.10;99.90;;;;;;5065695;28;20265;-70
2022/05/20 10:17:46;;;;;;;;;;;16.00;99.90;;;;;;5071518;28;20010;-71
2022/05/20 10:20:20;;;;;;;;;;;16.10;99.90;;;;;;5090208;28;20047;-69
2022/05/20 10:22:45;;;;;;;;;;;16.30;99.90;;;;;;5088515;28;19919;-70
2022/05/20 10:25:26;;;;;;;;;;;16.50;99.90;;;;;;5088891;28;19999;-70
2022/05/20 10:28:06;;;;;;;;;;;16.50;99.90;;;;;;5087821;28;20362;-70
2022/05/20 10:33:24;;;;;;;;;;;16.60;99.90;;;;;;5078291;28;20070;-70
2022/05/20 10:36:08;;;;;;;;;;;16.80;99.90;;;;;;5083971;28;20397;-71
2022/05/20 10:38:42;;;;;;;;;;;16.90;99.90;;;;;;5083515;28;19935;-70
2022/05/20 10:41:12;;;;;;;;;;;16.90;99.90;;;;;;5083718;28;20003;-68
2022/05/20 10:49:25;;;;;;;;;;;17.20;99.90;;;;;;5051368;28;20645;-70
2022/05/20 10:52:05;;;;;;;;;;;17.60;99.90;;;;;;5081851;28;19996;-69
2022/05/20 10:54:42;;;;;;;;;;;17.80;99.90;;;;;;5085669;28;20346;-72
2022/05/20 10:57:26;;;;;;;;;;;17.50;99.90;;;;;;5064488;28;19912;-70
2022/05/20 10:59:55;;;;;;;;;;;17.50;99.90;;;;;;5077319;28;19917;-70
2022/05/20 11:02:39;;;;;;;;;;;17.40;99.90;;;;;;5061990;28;19947;-70
2022/05/20 11:05:04;;;;;;;;;;;17.40;99.90;;;;;;5078659;28;19918;-70
2022/05/20 11:07:43;;;;;;;;;;;17.70;99.90;;;;;;5087084;28;19975;-70
2022/05/20 11:10:22;;;;;;;;;;;17.90;99.90;;;;;;5082310;28;19912;-72
2022/05/20 11:12:53;;;;;;;;;;;17.90;99.90;;;;;;5063586;28;19920;-70
2022/05/20 11:15:25;;;;;;;;;;;17.70;99.90;;;;;;5063437;28;19926;-71
2022/05/20 11:18:00;;;;;;;;;;;17.60;99.90;;;;;;5081535;28;19916;-70
2022/05/20 11:20:37;;;;;;;;;;;17.60;99.90;;;;;;5084895;28;19919;-70
2022/05/20 11:23:06;;;;;;;;;;;17.40;99.90;;;;;;5083244;28;19916;-71
2022/05/20 11:25:50;;;;;;;;;;;17.50;99.90;;;;;;5077805;28;20171;-70
2022/05/20 11:28:33;;;;;;;;;;;17.50;99.90;;;;;;5082828;28;19912;-69
2022/05/20 11:31:17;;;;;;;;;;;17.60;99.90;;;;;;5077067;28;20492;-71
2022/05/20 11:33:53;;;;;;;;;;;17.80;99.90;;;;;;5082992;28;19953;-71
2022/05/20 11:36:25;;;;;;;;;;;18.00;99.90;;;;;;5086120;28;19920;-71
2022/05/20 11:39:06;;;;;;;;;;;18.10;99.90;;;;;;5083177;28;19919;-70
2022/05/20 11:41:50;;;;;;;;;;;18.00;99.90;;;;;;5071523;28;19964;-72
2022/05/20 11:44:19;;;;;;;;;;;17.80;99.90;;;;;;5087993;28;20060;-70
2022/05/20 11:47:03;;;;;;;;;;;17.80;99.90;;;;;;5089473;28;19916;-71
2022/05/20 11:49:47;;;;;;;;;;;17.60;99.90;;;;;;5076485;28;19912;-70
2022/05/20 11:52:32;;;;;;;;;;;17.60;99.90;;;;;;5084652;28;20007;-72
2022/05/20 11:54:57;;;;;;;;;;;17.50;99.90;;;;;;5091746;28;20002;-70
2022/05/20 11:57:26;;;;;;;;;;;17.50;99.90;;;;;;5079120;28;20446;-70
2022/05/20 12:00:05;;;;;;;;;;;17.70;99.90;;;;;;5087200;28;19936;-69
2022/05/20 12:02:32;;;;;;;;;;;17.80;99.90;;;;;;5089727;28;20297;-69
2022/05/20 12:05:01;;;;;;;;;;;17.90;99.90;;;;;;5087719;28;19916;-70
2022/05/20 12:07:27;;;;;;;;;;;17.80;99.90;;;;;;5086952;28;19930;-71
2022/05/20 12:09:54;;;;;;;;;;;18.00;99.90;;;;;;5066696;28;19912;-70
2022/05/20 12:12:33;;;;;;;;;;;18.20;99.90;;;;;;5067016;28;19959;-72
2022/05/20 12:15:14;;;;;;;;;;;18.10;99.90;;;;;;5088318;28;19997;-70
2022/05/20 12:17:40;;;;;;;;;;;18.10;99.90;;;;;;5083950;28;20407;-69
2022/05/20 12:26:11;;;;;;;;;;;18.20;99.90;;;;;;5070114;28;20970;-70
2022/05/20 12:28:39;;;;;;;;;;;18.20;99.90;;;;;;5058361;28;20328;-70
2022/05/20 12:31:17;;;;;;;;;;;18.30;99.90;;;;;;5086534;28;20377;-71
2022/05/20 12:33:54;;;;;;;;;;;18.10;99.90;;;;;;5086463;28;20046;-69
2022/05/20 12:36:22;;;;;;;;;;;18.20;99.90;;;;;;5087825;28;20135;-70
2022/05/20 12:38:48;;;;;;;;;;;18.10;99.90;;;;;;5088375;28;19912;-70
2022/05/20 12:41:14;;;;;;;;;;;18.30;99.90;;;;;;5087303;28;19939;-71
2022/05/20 12:43:41;;;;;;;;;;;18.60;99.90;;;;;;5070969;28;20421;-69
2022/05/20 12:46:09;;;;;;;;;;;18.80;99.90;;;;;;5094582;28;19924;-69
2022/05/20 12:48:35;;;;;;;;;;;18.90;99.90;;;;;;5095201;28;19959;-70
2022/05/20 12:51:01;;;;;;;;;;;19.10;99.90;;;;;;5094230;28;19912;-70
2022/05/20 12:53:29;;;;;;;;;;;19.50;99.90;;;;;;5086881;28;19920;-69
2022/05/20 12:55:55;;;;;;;;;;;19.80;99.50;;;;;;5088802;28;20285;-71
2022/05/20 12:58:24;;;;;;;;;;;19.70;98.40;;;;;;5072371;28;19923;-70
2022/05/20 13:00:51;;;;;;;;;;;19.70;98.60;;;;;;5061923;28;20533;-69
2022/05/20 13:03:22;;;;;;;;;;;19.40;97.50;;;;;;5037853;28;19926;-68
2022/05/20 13:05:49;;;;;;;;;;;19.20;98.10;;;;;;5081725;28;20382;-71
2022/05/20 13:08:16;;;;;;;;;;;18.90;99.10;;;;;;5089746;28;19943;-69
2022/05/20 13:10:42;;;;;;;;;;;18.80;99.90;;;;;;5061380;28;20678;-71
2022/05/20 13:13:09;;;;;;;;;;;18.60;99.90;;;;;;5064135;28;19920;-69
2022/05/20 13:15:39;;;;;;;;;;;18.70;99.40;;;;;;5088569;28;19923;-71
2022/05/20 13:18:08;;;;;;;;;;;18.80;99.60;;;;;;5068058;28;19987;-69
2022/05/20 13:20:35;;;;;;;;;;;18.80;99.50;;;;;;5065787;28;19912;-69
2022/05/20 13:23:02;;;;;;;;;;;18.80;99.90;;;;;;5085997;28;20274;-70
2022/05/20 13:25:28;;;;;;;;;;;18.70;99.90;;;;;;5079615;28;19916;-70
2022/05/20 13:27:53;;;;;;;;;;;18.60;99.90;;;;;;5089109;28;19913;-70
2022/05/20 13:30:22;;;;;;;;;;;18.40;99.90;;;;;;5081160;28;19912;-70
2022/05/20 13:32:48;;;;;;;;;;;18.20;99.90;;;;;;5079692;28;20023;-68
2022/05/20 13:35:14;;;;;;;;;;;18.00;99.90;;;;;;5081108;28;19918;-69
2022/05/20 13:37:41;;;;;;;;;;;18.10;99.90;;;;;;5065089;28;19999;-69
2022/05/20 13:40:17;;;;;;;;;;;18.20;99.90;;;;;;5064726;28;20460;-71
2022/05/20 13:42:47;;;;;;;;;;;18.40;99.90;;;;;;5083224;28;20380;-69
2022/05/20 13:45:13;;;;;;;;;;;18.60;99.90;;;;;;5082018;28;19967;-70
2022/05/20 13:50:24;;;;;;;;;;;18.70;99.90;;;;;;5089808;28;19991;-70
2022/05/20 13:52:50;;;;;;;;;;;18.60;99.90;;;;;;5081019;28;20090;-69
2022/05/20 13:55:17;;;;;;;;;;;18.60;99.90;;;;;;5084158;28;19912;-69
2022/05/20 13:57:44;;;;;;;;;;;18.60;99.90;;;;;;5063571;28;19920;-69
2022/05/20 14:00:27;;;;;;;;;;;18.60;99.90;;;;;;5087480;28;20284;-69
2022/05/20 14:02:56;;;;;;;;;;;18.60;99.90;;;;;;5070092;28;19912;-70
2022/05/20 14:05:27;;;;;;;;;;;18.40;99.90;;;;;;5087932;28;20215;-69
2022/05/20 14:07:54;;;;;;;;;;;18.40;99.90;;;;;;5080540;28;19966;-69
2022/05/20 14:10:29;;;;;;;;;;;18.60;99.90;;;;;;5062461;28;21418;-69
2022/05/20 14:12:57;;;;;;;;;;;18.80;99.90;;;;;;5084026;28;20306;-69
2022/05/20 14:15:29;;;;;;;;;;;19.10;99.90;;;;;;5090610;28;19919;-70
2022/05/20 14:18:00;;;;;;;;;;;19.20;99.90;;;;;;5091559;28;20270;-69
2022/05/20 14:20:30;;;;;;;;;;;19.30;99.90;;;;;;5076270;28;20027;-72
2022/05/20 14:22:56;;;;;;;;;;;19.20;99.90;;;;;;5085236;28;19912;-69
2022/05/20 14:25:22;;;;;;;;;;;19.00;99.90;;;;;;5068552;28;20003;-69
2022/05/20 14:27:50;;;;;;;;;;;18.70;99.90;;;;;;5080170;28;19916;-71
2022/05/20 14:30:35;;;;;;;;;;;18.50;99.90;;;;;;5074303;28;20010;-69
2022/05/20 14:33:06;;;;;;;;;;;18.30;99.90;;;;;;5091919;28;19926;-71
2022/05/20 14:35:40;;;;;;;;;;;18.20;99.90;;;;;;5089098;28;20389;-71
2022/05/20 14:38:06;;;;;;;;;;;18.20;99.90;;;;;;5066736;28;19908;-69
2022/05/20 14:40:37;;;;;;;;;;;18.20;99.90;;;;;;5081206;28;20594;-69
2022/05/20 14:43:06;;;;;;;;;;;18.10;99.90;;;;;;5068720;28;19912;-68
2022/05/20 14:45:36;;;;;;;;;;;17.80;99.90;;;;;;5090216;28;19970;-68
2022/05/20 14:48:06;;;;;;;;;;;17.50;99.90;;;;;;5088437;28;20281;-69
2022/05/20 14:50:32;;;;;;;;;;;17.20;99.90;;;;;;5088006;28;19922;-70
2022/05/20 14:53:06;;;;;;;;;;;17.10;99.90;;;;;;5068883;28;20112;-69
2022/05/20 14:55:40;;;;;;;;;;;16.90;99.90;;;;;;5068815;28;19958;-69
2022/05/20 14:58:10;;;;;;;;;;;16.70;99.90;;;;;;5070376;28;20011;-69
2022/05/20 15:00:36;;;;;;;;;;;16.80;99.90;;;;;;5056559;28;19908;-69
2022/05/20 15:03:05;;;;;;;;;;;17.10;99.90;;;;;;5084954;28;20349;-70
2022/05/20 15:05:31;;;;;;;;;;;17.50;99.90;;;;;;5088539;28;19912;-70